Pagina principale
METAR-TAF:

METAR-TAF

Aeroporti :

Aeroporto di Lugano-Agno

Lugano, Svizzera

latitudine: 46-00N, longitudine: 008-58E, altezza: 273 m

Osservazione

Il bollettino è stato emesso 38 minuti fa, alle 12:20 UTC
Vento 4 kt da sud, variando fra est/nord-est e sud-ovest
Temperature 4°C
Umidità 38%
Pressione 1036 hPa
Visibilità 10 km o più
Poco nuvoloso ad un'altezza di 6000 ft

METAR: LSZA 091220Z 18004KT 060V220 9999 FEW060 04/M09 Q1036

Ora: 13:58 (12:58 UTC)

Previsione

Il bollettino è stato emesso 1 ora e 33 minuti fa, alle 11:25 UTC
Previsione valida dal 09 alle 12 UTC al 09 alle 21 UTC
Vento 2 kt da direzioni variabili
Visibilità 10 km o più
Poco nuvoloso ad un'altezza di 5500 ft
Nuvoloso ad un'altezza di 8000 ft
Probabilità 40%
dal 09 alle 14 UTC al 09 alle 21 UTC
Visibilità 10 km o più
nessuna nube inferiore a 1500 m e nessun cumulonembo

TAF: LSZA 091125Z 0912/0921 VRB02KT 9999 FEW055 BKN080 PROB40 0914/0921 CAVOK

Osservazioni e previsioni meteorologiche di più di 4000 aeroporti (messaggi METAR e TAF).

Le stazioni disponibili sono rappresentate dai dischi gialli e rossi sulla carta.

Puntare il mouse per vedere il nome della stazione.

Clicca sopra per visualizzare le osservazioni e previsioni meteorologiche.

Per cambiare la mappa : fare clic sui pulsanti verdi con una croce nera per ingrandire, il pulsante verde con un trattino per diminuire, o sulla freccia verde per le mappe adiacenti.


METAR-TAF: